sensor_id;sensor_type;location;lat;lon;timestamp;P1;durP1;ratioP1;P2;durP2;ratioP2
42834;SDS011;29335;50.526;30.458;2022-11-15T00:01:36;18.63;;;14.95;;
42834;SDS011;29335;50.526;30.458;2022-11-15T00:04:03;15.85;;;13.73;;
42834;SDS011;29335;50.526;30.458;2022-11-15T00:06:29;16.17;;;12.10;;
42834;SDS011;29335;50.526;30.458;2022-11-15T00:08:54;15.77;;;12.68;;
42834;SDS011;29335;50.526;30.458;2022-11-15T00:11:23;14.05;;;11.18;;
42834;SDS011;29335;50.526;30.458;2022-11-15T00:13:49;13.00;;;9.73;;
42834;SDS011;29335;50.526;30.458;2022-11-15T00:16:14;15.90;;;11.35;;
42834;SDS011;29335;50.526;30.458;2022-11-15T00:18:40;16.42;;;11.23;;
42834;SDS011;29335;50.526;30.458;2022-11-15T00:21:07;15.35;;;10.57;;
42834;SDS011;29335;50.526;30.458;2022-11-15T00:23:34;14.10;;;10.30;;
42834;SDS011;29335;50.526;30.458;2022-11-15T00:26:00;13.07;;;10.77;;
42834;SDS011;29335;50.526;30.458;2022-11-15T00:28:26;13.57;;;10.60;;
42834;SDS011;29335;50.526;30.458;2022-11-15T00:30:51;13.63;;;10.07;;
42834;SDS011;29335;50.526;30.458;2022-11-15T00:33:17;10.82;;;9.27;;
42834;SDS011;29335;50.526;30.458;2022-11-15T00:35:43;12.80;;;11.32;;
42834;SDS011;29335;50.526;30.458;2022-11-15T00:38:09;14.10;;;11.20;;
42834;SDS011;29335;50.526;30.458;2022-11-15T00:40:34;14.27;;;11.18;;
42834;SDS011;29335;50.526;30.458;2022-11-15T00:43:00;15.70;;;12.00;;
42834;SDS011;29335;50.526;30.458;2022-11-15T00:45:26;16.75;;;13.05;;
42834;SDS011;29335;50.526;30.458;2022-11-15T00:47:51;14.85;;;11.95;;
42834;SDS011;29335;50.526;30.458;2022-11-15T00:50:17;18.13;;;12.60;;
42834;SDS011;29335;50.526;30.458;2022-11-15T00:52:43;17.13;;;12.77;;
42834;SDS011;29335;50.526;30.458;2022-11-15T00:55:13;16.70;;;13.82;;
42834;SDS011;29335;50.526;30.458;2022-11-15T00:57:40;16.08;;;12.48;;
42834;SDS011;29335;50.526;30.458;2022-11-15T01:00:06;22.25;;;13.38;;
42834;SDS011;29335;50.526;30.458;2022-11-15T01:02:32;15.05;;;13.45;;
42834;SDS011;29335;50.526;30.458;2022-11-15T01:04:59;17.55;;;13.20;;
42834;SDS011;29335;50.526;30.458;2022-11-15T01:07:24;20.50;;;13.43;;
42834;SDS011;29335;50.526;30.458;2022-11-15T01:09:50;15.75;;;12.05;;
42834;SDS011;29335;50.526;30.458;2022-11-15T01:12:16;15.05;;;11.75;;
42834;SDS011;29335;50.526;30.458;2022-11-15T01:14:41;15.85;;;10.88;;
42834;SDS011;29335;50.526;30.458;2022-11-15T01:17:07;13.30;;;10.50;;
42834;SDS011;29335;50.526;30.458;2022-11-15T01:19:33;13.18;;;11.48;;
42834;SDS011;29335;50.526;30.458;2022-11-15T01:21:59;18.13;;;12.20;;
42834;SDS011;29335;50.526;30.458;2022-11-15T01:24:24;18.52;;;11.88;;
42834;SDS011;29335;50.526;30.458;2022-11-15T01:26:50;13.40;;;11.35;;
42834;SDS011;29335;50.526;30.458;2022-11-15T01:29:16;15.45;;;11.82;;
42834;SDS011;29335;50.526;30.458;2022-11-15T01:31:42;17.95;;;11.40;;
42834;SDS011;29335;50.526;30.458;2022-11-15T01:34:07;12.63;;;10.50;;
42834;SDS011;29335;50.526;30.458;2022-11-15T01:36:33;14.30;;;9.38;;
42834;SDS011;29335;50.526;30.458;2022-11-15T01:38:59;13.10;;;9.80;;
42834;SDS011;29335;50.526;30.458;2022-11-15T01:41:26;14.02;;;10.27;;
42834;SDS011;29335;50.526;30.458;2022-11-15T01:43:54;14.93;;;9.23;;
42834;SDS011;29335;50.526;30.458;2022-11-15T01:46:23;10.68;;;9.32;;
42834;SDS011;29335;50.526;30.458;2022-11-15T01:49:01;11.65;;;8.70;;
42834;SDS011;29335;50.526;30.458;2022-11-15T01:51:31;9.70;;;8.75;;
42834;SDS011;29335;50.526;30.458;2022-11-15T01:54:00;9.43;;;8.23;;
42834;SDS011;29335;50.526;30.458;2022-11-15T01:56:31;9.35;;;8.32;;
42834;SDS011;29335;50.526;30.458;2022-11-15T01:59:01;11.18;;;8.27;;
42834;SDS011;29335;50.526;30.458;2022-11-15T02:01:30;11.38;;;8.65;;
42834;SDS011;29335;50.526;30.458;2022-11-15T02:04:13;10.93;;;8.05;;
42834;SDS011;29335;50.526;30.458;2022-11-15T02:06:42;7.72;;;6.93;;
42834;SDS011;29335;50.526;30.458;2022-11-15T02:09:09;10.65;;;7.55;;
42834;SDS011;29335;50.526;30.458;2022-11-15T02:11:36;8.15;;;7.22;;
42834;SDS011;29335;50.526;30.458;2022-11-15T02:14:02;9.05;;;6.65;;
42834;SDS011;29335;50.526;30.458;2022-11-15T02:30:02;9.93;;;7.05;;
42834;SDS011;29335;50.526;30.458;2022-11-15T02:33:03;11.77;;;8.52;;
42834;SDS011;29335;50.526;30.458;2022-11-15T02:38:29;9.60;;;7.20;;
42834;SDS011;29335;50.526;30.458;2022-11-15T02:41:17;10.98;;;7.30;;
42834;SDS011;29335;50.526;30.458;2022-11-15T02:46:45;9.50;;;6.55;;
42834;SDS011;29335;50.526;30.458;2022-11-15T02:49:31;9.35;;;6.70;;
42834;SDS011;29335;50.526;30.458;2022-11-15T02:51:59;9.30;;;6.80;;
42834;SDS011;29335;50.526;30.458;2022-11-15T02:54:28;8.60;;;6.38;;
42834;SDS011;29335;50.526;30.458;2022-11-15T02:56:56;12.07;;;7.47;;
42834;SDS011;29335;50.526;30.458;2022-11-15T02:59:36;11.68;;;7.75;;
42834;SDS011;29335;50.526;30.458;2022-11-15T03:07:35;10.27;;;6.95;;
42834;SDS011;29335;50.526;30.458;2022-11-15T03:10:11;8.35;;;6.55;;
42834;SDS011;29335;50.526;30.458;2022-11-15T03:13:03;8.93;;;7.05;;
42834;SDS011;29335;50.526;30.458;2022-11-15T03:15:38;9.75;;;6.95;;
42834;SDS011;29335;50.526;30.458;2022-11-15T03:18:13;10.60;;;6.85;;
42834;SDS011;29335;50.526;30.458;2022-11-15T03:20:46;10.18;;;7.20;;
42834;SDS011;29335;50.526;30.458;2022-11-15T03:23:13;9.82;;;7.15;;
42834;SDS011;29335;50.526;30.458;2022-11-15T03:25:44;10.45;;;7.65;;
42834;SDS011;29335;50.526;30.458;2022-11-15T03:28:14;10.27;;;8.00;;
42834;SDS011;29335;50.526;30.458;2022-11-15T03:30:46;10.57;;;8.10;;
42834;SDS011;29335;50.526;30.458;2022-11-15T03:33:14;13.48;;;7.97;;
42834;SDS011;29335;50.526;30.458;2022-11-15T03:35:42;9.60;;;7.95;;
42834;SDS011;29335;50.526;30.458;2022-11-15T03:38:15;10.70;;;8.07;;
42834;SDS011;29335;50.526;30.458;2022-11-15T03:41:05;11.70;;;8.43;;
42834;SDS011;29335;50.526;30.458;2022-11-15T03:43:43;11.38;;;8.18;;
42834;SDS011;29335;50.526;30.458;2022-11-15T03:46:19;12.30;;;8.95;;
42834;SDS011;29335;50.526;30.458;2022-11-15T03:49:12;12.45;;;8.73;;
42834;SDS011;29335;50.526;30.458;2022-11-15T03:51:46;12.43;;;8.95;;
42834;SDS011;29335;50.526;30.458;2022-11-15T03:54:12;11.60;;;9.40;;
42834;SDS011;29335;50.526;30.458;2022-11-15T03:56:39;10.95;;;9.05;;
42834;SDS011;29335;50.526;30.458;2022-11-15T03:59:04;13.18;;;10.05;;
42834;SDS011;29335;50.526;30.458;2022-11-15T04:01:30;12.65;;;9.82;;
42834;SDS011;29335;50.526;30.458;2022-11-15T04:03:56;11.35;;;10.15;;
42834;SDS011;29335;50.526;30.458;2022-11-15T04:06:21;14.27;;;10.50;;
42834;SDS011;29335;50.526;30.458;2022-11-15T04:08:47;13.35;;;10.88;;
42834;SDS011;29335;50.526;30.458;2022-11-15T04:11:13;17.13;;;11.88;;
42834;SDS011;29335;50.526;30.458;2022-11-15T04:13:38;16.45;;;11.02;;
42834;SDS011;29335;50.526;30.458;2022-11-15T04:16:04;16.67;;;11.05;;
42834;SDS011;29335;50.526;30.458;2022-11-15T04:18:30;14.30;;;11.60;;
42834;SDS011;29335;50.526;30.458;2022-11-15T04:20:55;14.98;;;12.38;;
42834;SDS011;29335;50.526;30.458;2022-11-15T04:23:39;16.55;;;12.15;;
42834;SDS011;29335;50.526;30.458;2022-11-15T04:26:24;18.90;;;12.93;;
42834;SDS011;29335;50.526;30.458;2022-11-15T04:28:49;17.77;;;13.93;;
42834;SDS011;29335;50.526;30.458;2022-11-15T04:31:33;16.23;;;12.82;;
42834;SDS011;29335;50.526;30.458;2022-11-15T04:33:59;17.83;;;13.75;;
42834;SDS011;29335;50.526;30.458;2022-11-15T04:36:25;16.75;;;13.68;;
42834;SDS011;29335;50.526;30.458;2022-11-15T04:39:09;17.48;;;13.73;;
42834;SDS011;29335;50.526;30.458;2022-11-15T04:41:35;20.20;;;15.63;;
42834;SDS011;29335;50.526;30.458;2022-11-15T04:44:00;21.08;;;16.48;;
42834;SDS011;29335;50.526;30.458;2022-11-15T04:46:26;22.15;;;16.27;;
42834;SDS011;29335;50.526;30.458;2022-11-15T04:48:52;20.98;;;15.55;;
42834;SDS011;29335;50.526;30.458;2022-11-15T04:51:18;21.30;;;16.05;;
42834;SDS011;29335;50.526;30.458;2022-11-15T04:53:45;27.80;;;19.38;;
42834;SDS011;29335;50.526;30.458;2022-11-15T04:56:10;40.58;;;23.27;;
42834;SDS011;29335;50.526;30.458;2022-11-15T04:58:36;30.58;;;20.50;;
42834;SDS011;29335;50.526;30.458;2022-11-15T05:01:09;26.30;;;19.67;;
42834;SDS011;29335;50.526;30.458;2022-11-15T05:03:39;25.83;;;19.20;;
42834;SDS011;29335;50.526;30.458;2022-11-15T05:06:24;44.05;;;30.17;;
42834;SDS011;29335;50.526;30.458;2022-11-15T05:08:50;29.15;;;21.15;;
42834;SDS011;29335;50.526;30.458;2022-11-15T05:11:16;27.08;;;19.95;;
42834;SDS011;29335;50.526;30.458;2022-11-15T05:13:41;26.65;;;18.90;;
42834;SDS011;29335;50.526;30.458;2022-11-15T05:16:07;26.10;;;18.42;;
42834;SDS011;29335;50.526;30.458;2022-11-15T05:18:33;27.17;;;18.80;;
42834;SDS011;29335;50.526;30.458;2022-11-15T05:21:05;25.02;;;18.77;;
42834;SDS011;29335;50.526;30.458;2022-11-15T05:23:32;26.17;;;20.15;;
42834;SDS011;29335;50.526;30.458;2022-11-15T05:25:59;28.17;;;20.00;;
42834;SDS011;29335;50.526;30.458;2022-11-15T05:28:25;24.60;;;18.08;;
42834;SDS011;29335;50.526;30.458;2022-11-15T05:30:51;24.52;;;18.13;;
42834;SDS011;29335;50.526;30.458;2022-11-15T05:33:17;27.15;;;19.23;;
42834;SDS011;29335;50.526;30.458;2022-11-15T05:35:44;27.30;;;20.13;;
42834;SDS011;29335;50.526;30.458;2022-11-15T05:38:13;29.33;;;21.45;;
42834;SDS011;29335;50.526;30.458;2022-11-15T05:40:39;29.65;;;21.42;;
42834;SDS011;29335;50.526;30.458;2022-11-15T05:43:05;32.28;;;20.88;;
42834;SDS011;29335;50.526;30.458;2022-11-15T05:45:31;27.08;;;20.20;;
42834;SDS011;29335;50.526;30.458;2022-11-15T05:47:59;27.33;;;18.80;;
42834;SDS011;29335;50.526;30.458;2022-11-15T05:50:29;26.98;;;19.23;;
42834;SDS011;29335;50.526;30.458;2022-11-15T05:52:55;33.97;;;22.05;;
42834;SDS011;29335;50.526;30.458;2022-11-15T05:55:24;34.72;;;26.63;;
42834;SDS011;29335;50.526;30.458;2022-11-15T05:57:50;31.02;;;22.13;;
42834;SDS011;29335;50.526;30.458;2022-11-15T06:00:15;34.28;;;24.52;;
42834;SDS011;29335;50.526;30.458;2022-11-15T06:02:41;28.95;;;22.33;;
42834;SDS011;29335;50.526;30.458;2022-11-15T06:05:07;30.05;;;22.30;;
42834;SDS011;29335;50.526;30.458;2022-11-15T06:07:33;32.65;;;24.00;;
42834;SDS011;29335;50.526;30.458;2022-11-15T06:09:58;34.10;;;22.05;;
42834;SDS011;29335;50.526;30.458;2022-11-15T06:12:24;32.25;;;22.33;;
42834;SDS011;29335;50.526;30.458;2022-11-15T06:14:49;32.15;;;22.30;;
42834;SDS011;29335;50.526;30.458;2022-11-15T06:17:15;58.05;;;33.20;;
42834;SDS011;29335;50.526;30.458;2022-11-15T06:19:41;43.55;;;28.13;;
42834;SDS011;29335;50.526;30.458;2022-11-15T06:22:09;35.20;;;24.05;;
42834;SDS011;29335;50.526;30.458;2022-11-15T06:24:35;37.47;;;24.88;;
42834;SDS011;29335;50.526;30.458;2022-11-15T06:27:01;33.47;;;22.50;;
42834;SDS011;29335;50.526;30.458;2022-11-15T06:29:26;29.98;;;22.65;;
42834;SDS011;29335;50.526;30.458;2022-11-15T06:31:52;31.67;;;21.80;;
42834;SDS011;29335;50.526;30.458;2022-11-15T06:34:18;31.42;;;20.85;;
42834;SDS011;29335;50.526;30.458;2022-11-15T06:36:43;30.30;;;21.30;;
42834;SDS011;29335;50.526;30.458;2022-11-15T06:39:09;37.75;;;24.30;;
42834;SDS011;29335;50.526;30.458;2022-11-15T06:41:34;32.42;;;21.85;;
42834;SDS011;29335;50.526;30.458;2022-11-15T06:44:00;28.98;;;19.65;;
42834;SDS011;29335;50.526;30.458;2022-11-15T06:46:26;29.88;;;18.48;;
42834;SDS011;29335;50.526;30.458;2022-11-15T06:48:52;25.73;;;17.15;;
42834;SDS011;29335;50.526;30.458;2022-11-15T06:51:19;27.73;;;19.05;;
42834;SDS011;29335;50.526;30.458;2022-11-15T06:53:45;26.98;;;18.38;;
42834;SDS011;29335;50.526;30.458;2022-11-15T06:56:11;29.85;;;18.67;;
42834;SDS011;29335;50.526;30.458;2022-11-15T06:58:37;26.70;;;19.55;;
42834;SDS011;29335;50.526;30.458;2022-11-15T07:01:04;29.77;;;19.48;;
42834;SDS011;29335;50.526;30.458;2022-11-15T07:03:31;27.13;;;18.83;;
42834;SDS011;29335;50.526;30.458;2022-11-15T07:05:58;26.63;;;17.50;;
42834;SDS011;29335;50.526;30.458;2022-11-15T07:08:26;26.73;;;16.88;;
42834;SDS011;29335;50.526;30.458;2022-11-15T07:10:53;27.33;;;18.23;;
42834;SDS011;29335;50.526;30.458;2022-11-15T07:13:19;33.20;;;20.73;;
42834;SDS011;29335;50.526;30.458;2022-11-15T07:15:44;29.10;;;19.70;;
42834;SDS011;29335;50.526;30.458;2022-11-15T07:18:10;27.52;;;18.27;;
42834;SDS011;29335;50.526;30.458;2022-11-15T07:20:36;28.15;;;18.35;;
42834;SDS011;29335;50.526;30.458;2022-11-15T07:23:02;27.67;;;18.80;;
42834;SDS011;29335;50.526;30.458;2022-11-15T07:25:29;28.85;;;19.08;;
42834;SDS011;29335;50.526;30.458;2022-11-15T07:27:55;26.02;;;17.67;;
42834;SDS011;29335;50.526;30.458;2022-11-15T07:30:22;25.85;;;18.17;;
42834;SDS011;29335;50.526;30.458;2022-11-15T07:32:51;24.23;;;19.35;;
42834;SDS011;29335;50.526;30.458;2022-11-15T07:35:18;25.98;;;19.33;;
42834;SDS011;29335;50.526;30.458;2022-11-15T07:37:44;25.48;;;19.33;;
42834;SDS011;29335;50.526;30.458;2022-11-15T07:40:17;25.15;;;20.10;;
42834;SDS011;29335;50.526;30.458;2022-11-15T07:42:42;26.50;;;20.35;;
42834;SDS011;29335;50.526;30.458;2022-11-15T07:45:21;25.83;;;20.55;;
42834;SDS011;29335;50.526;30.458;2022-11-15T07:47:49;26.48;;;21.02;;
42834;SDS011;29335;50.526;30.458;2022-11-15T07:50:15;26.17;;;19.85;;
42834;SDS011;29335;50.526;30.458;2022-11-15T07:52:41;25.55;;;20.25;;
42834;SDS011;29335;50.526;30.458;2022-11-15T07:55:07;25.88;;;21.02;;
42834;SDS011;29335;50.526;30.458;2022-11-15T07:57:33;25.33;;;19.85;;
42834;SDS011;29335;50.526;30.458;2022-11-15T07:59:59;24.65;;;20.27;;
42834;SDS011;29335;50.526;30.458;2022-11-15T08:02:24;27.75;;;20.50;;
42834;SDS011;29335;50.526;30.458;2022-11-15T08:04:50;26.50;;;20.40;;
42834;SDS011;29335;50.526;30.458;2022-11-15T08:07:16;27.35;;;22.30;;
42834;SDS011;29335;50.526;30.458;2022-11-15T08:09:44;28.55;;;20.77;;
42834;SDS011;29335;50.526;30.458;2022-11-15T08:12:12;28.10;;;21.23;;
42834;SDS011;29335;50.526;30.458;2022-11-15T08:14:40;26.33;;;21.42;;
42834;SDS011;29335;50.526;30.458;2022-11-15T08:17:06;31.27;;;21.67;;
42834;SDS011;29335;50.526;30.458;2022-11-15T08:19:31;24.13;;;18.75;;
42834;SDS011;29335;50.526;30.458;2022-11-15T08:21:57;23.85;;;18.40;;
42834;SDS011;29335;50.526;30.458;2022-11-15T08:24:23;23.10;;;18.90;;
42834;SDS011;29335;50.526;30.458;2022-11-15T08:26:48;22.92;;;18.27;;
42834;SDS011;29335;50.526;30.458;2022-11-15T08:29:14;25.88;;;19.60;;
42834;SDS011;29335;50.526;30.458;2022-11-15T08:31:40;26.80;;;18.65;;
42834;SDS011;29335;50.526;30.458;2022-11-15T08:34:05;23.40;;;18.20;;
42834;SDS011;29335;50.526;30.458;2022-11-15T08:36:31;25.08;;;19.33;;
42834;SDS011;29335;50.526;30.458;2022-11-15T08:38:57;22.33;;;18.02;;
42834;SDS011;29335;50.526;30.458;2022-11-15T08:41:25;27.67;;;19.73;;
42834;SDS011;29335;50.526;30.458;2022-11-15T08:43:58;27.58;;;18.98;;
42834;SDS011;29335;50.526;30.458;2022-11-15T08:46:24;24.10;;;18.20;;
42834;SDS011;29335;50.526;30.458;2022-11-15T08:48:50;23.58;;;17.83;;
42834;SDS011;29335;50.526;30.458;2022-11-15T08:51:15;22.45;;;18.02;;
42834;SDS011;29335;50.526;30.458;2022-11-15T08:53:41;25.25;;;18.50;;
42834;SDS011;29335;50.526;30.458;2022-11-15T08:56:11;24.13;;;18.92;;
42834;SDS011;29335;50.526;30.458;2022-11-15T08:58:38;24.40;;;19.73;;
42834;SDS011;29335;50.526;30.458;2022-11-15T09:01:03;22.83;;;19.08;;
42834;SDS011;29335;50.526;30.458;2022-11-15T09:03:29;22.75;;;18.02;;
42834;SDS011;29335;50.526;30.458;2022-11-15T09:05:56;24.17;;;19.25;;
42834;SDS011;29335;50.526;30.458;2022-11-15T09:08:23;22.08;;;18.55;;
42834;SDS011;29335;50.526;30.458;2022-11-15T09:10:49;20.98;;;18.80;;
42834;SDS011;29335;50.526;30.458;2022-11-15T09:13:15;21.70;;;18.23;;
42834;SDS011;29335;50.526;30.458;2022-11-15T09:15:41;24.77;;;18.98;;
42834;SDS011;29335;50.526;30.458;2022-11-15T09:18:07;20.88;;;17.58;;
42834;SDS011;29335;50.526;30.458;2022-11-15T09:20:33;24.08;;;19.00;;
42834;SDS011;29335;50.526;30.458;2022-11-15T09:23:02;25.25;;;18.88;;
42834;SDS011;29335;50.526;30.458;2022-11-15T09:25:29;22.23;;;18.48;;
42834;SDS011;29335;50.526;30.458;2022-11-15T09:27:55;22.92;;;17.10;;
42834;SDS011;29335;50.526;30.458;2022-11-15T09:30:22;24.02;;;18.27;;
42834;SDS011;29335;50.526;30.458;2022-11-15T09:32:49;23.20;;;16.83;;
42834;SDS011;29335;50.526;30.458;2022-11-15T09:35:17;22.55;;;17.50;;
42834;SDS011;29335;50.526;30.458;2022-11-15T09:37:42;23.35;;;17.73;;
42834;SDS011;29335;50.526;30.458;2022-11-15T09:40:09;22.42;;;17.88;;
42834;SDS011;29335;50.526;30.458;2022-11-15T09:45:30;21.60;;;16.60;;
42834;SDS011;29335;50.526;30.458;2022-11-15T09:51:00;23.27;;;18.83;;
42834;SDS011;29335;50.526;30.458;2022-11-15T09:53:29;23.95;;;17.33;;
42834;SDS011;29335;50.526;30.458;2022-11-15T10:00:54;22.83;;;18.45;;
42834;SDS011;29335;50.526;30.458;2022-11-15T10:03:25;25.88;;;18.85;;
42834;SDS011;29335;50.526;30.458;2022-11-15T13:21:01;34.25;;;27.52;;
42834;SDS011;29335;50.526;30.458;2022-11-15T13:23:53;35.50;;;28.10;;
42834;SDS011;29335;50.526;30.458;2022-11-15T13:26:19;35.30;;;27.20;;
42834;SDS011;29335;50.526;30.458;2022-11-15T13:28:47;35.70;;;27.95;;
42834;SDS011;29335;50.526;30.458;2022-11-15T13:33:51;34.88;;;27.67;;
42834;SDS011;29335;50.526;30.458;2022-11-15T13:36:24;38.53;;;29.02;;
42834;SDS011;29335;50.526;30.458;2022-11-15T13:38:56;43.80;;;29.27;;
42834;SDS011;29335;50.526;30.458;2022-11-15T13:41:31;43.50;;;29.60;;
42834;SDS011;29335;50.526;30.458;2022-11-15T13:44:01;40.45;;;30.10;;
42834;SDS011;29335;50.526;30.458;2022-11-15T13:46:29;39.75;;;29.48;;
42834;SDS011;29335;50.526;30.458;2022-11-15T13:49:05;39.20;;;30.25;;
42834;SDS011;29335;50.526;30.458;2022-11-15T13:51:41;37.63;;;28.02;;
42834;SDS011;29335;50.526;30.458;2022-11-15T13:56:47;41.75;;;28.58;;
42834;SDS011;29335;50.526;30.458;2022-11-15T13:59:20;44.08;;;28.67;;
42834;SDS011;29335;50.526;30.458;2022-11-15T14:01:54;35.42;;;29.05;;
42834;SDS011;29335;50.526;30.458;2022-11-15T14:04:22;34.60;;;27.70;;
42834;SDS011;29335;50.526;30.458;2022-11-15T14:06:51;35.47;;;28.23;;
42834;SDS011;29335;50.526;30.458;2022-11-15T14:11:54;36.03;;;28.15;;
42834;SDS011;29335;50.526;30.458;2022-11-15T14:14:22;33.35;;;26.75;;
42834;SDS011;29335;50.526;30.458;2022-11-15T14:16:50;37.10;;;28.33;;
42834;SDS011;29335;50.526;30.458;2022-11-15T14:24:36;39.65;;;27.58;;
42834;SDS011;29335;50.526;30.458;2022-11-15T14:27:16;39.05;;;27.83;;
42834;SDS011;29335;50.526;30.458;2022-11-15T14:29:46;41.13;;;26.83;;
42834;SDS011;29335;50.526;30.458;2022-11-15T14:34:38;38.78;;;27.50;;
42834;SDS011;29335;50.526;30.458;2022-11-15T14:37:03;35.78;;;26.95;;
42834;SDS011;29335;50.526;30.458;2022-11-15T14:43:08;39.85;;;29.33;;
42834;SDS011;29335;50.526;30.458;2022-11-15T14:45:40;39.20;;;29.15;;
42834;SDS011;29335;50.526;30.458;2022-11-15T14:48:07;38.33;;;28.67;;
42834;SDS011;29335;50.526;30.458;2022-11-15T14:50:33;38.88;;;28.27;;
42834;SDS011;29335;50.526;30.458;2022-11-15T14:52:59;42.58;;;28.42;;
42834;SDS011;29335;50.526;30.458;2022-11-15T14:55:32;38.80;;;29.17;;
42834;SDS011;29335;50.526;30.458;2022-11-15T14:58:04;38.42;;;29.90;;
42834;SDS011;29335;50.526;30.458;2022-11-15T15:00:33;43.33;;;30.02;;
42834;SDS011;29335;50.526;30.458;2022-11-15T15:03:00;39.92;;;29.30;;
42834;SDS011;29335;50.526;30.458;2022-11-15T15:05:29;40.65;;;30.60;;
42834;SDS011;29335;50.526;30.458;2022-11-15T15:08:03;40.17;;;29.88;;
42834;SDS011;29335;50.526;30.458;2022-11-15T15:10:35;42.03;;;30.08;;
42834;SDS011;29335;50.526;30.458;2022-11-15T15:13:02;37.13;;;30.23;;
42834;SDS011;29335;50.526;30.458;2022-11-15T15:15:33;39.60;;;30.42;;
42834;SDS011;29335;50.526;30.458;2022-11-15T15:18:00;41.03;;;30.15;;
42834;SDS011;29335;50.526;30.458;2022-11-15T15:20:26;38.22;;;30.65;;
42834;SDS011;29335;50.526;30.458;2022-11-15T15:22:53;40.53;;;30.77;;
42834;SDS011;29335;50.526;30.458;2022-11-15T15:27:46;38.33;;;30.15;;
42834;SDS011;29335;50.526;30.458;2022-11-15T15:30:12;43.22;;;31.00;;
42834;SDS011;29335;50.526;30.458;2022-11-15T15:32:38;39.45;;;32.03;;
42834;SDS011;29335;50.526;30.458;2022-11-15T15:35:04;44.90;;;33.47;;
42834;SDS011;29335;50.526;30.458;2022-11-15T15:37:29;44.67;;;34.70;;
42834;SDS011;29335;50.526;30.458;2022-11-15T15:39:58;47.22;;;37.25;;
42834;SDS011;29335;50.526;30.458;2022-11-15T15:42:23;49.47;;;37.30;;
42834;SDS011;29335;50.526;30.458;2022-11-15T15:44:52;52.35;;;38.60;;
42834;SDS011;29335;50.526;30.458;2022-11-15T15:47:19;50.40;;;37.72;;
42834;SDS011;29335;50.526;30.458;2022-11-15T15:49:46;50.17;;;38.42;;
42834;SDS011;29335;50.526;30.458;2022-11-15T15:52:12;46.15;;;37.03;;
42834;SDS011;29335;50.526;30.458;2022-11-15T15:54:38;48.95;;;36.78;;
42834;SDS011;29335;50.526;30.458;2022-11-15T15:57:04;43.28;;;35.10;;
42834;SDS011;29335;50.526;30.458;2022-11-15T15:59:30;43.33;;;33.72;;
42834;SDS011;29335;50.526;30.458;2022-11-15T16:01:56;41.97;;;32.30;;
42834;SDS011;29335;50.526;30.458;2022-11-15T16:04:22;41.67;;;31.33;;
42834;SDS011;29335;50.526;30.458;2022-11-15T16:06:48;40.22;;;30.83;;
42834;SDS011;29335;50.526;30.458;2022-11-15T16:09:17;38.38;;;29.33;;
42834;SDS011;29335;50.526;30.458;2022-11-15T16:12:03;40.13;;;30.23;;
42834;SDS011;29335;50.526;30.458;2022-11-15T16:14:29;37.70;;;28.98;;
42834;SDS011;29335;50.526;30.458;2022-11-15T16:16:55;39.50;;;29.83;;
42834;SDS011;29335;50.526;30.458;2022-11-15T16:19:20;38.55;;;29.38;;
42834;SDS011;29335;50.526;30.458;2022-11-15T16:21:46;41.83;;;29.25;;
42834;SDS011;29335;50.526;30.458;2022-11-15T16:24:11;39.03;;;28.30;;
42834;SDS011;29335;50.526;30.458;2022-11-15T16:26:37;41.25;;;28.88;;
42834;SDS011;29335;50.526;30.458;2022-11-15T16:29:03;36.55;;;28.42;;
42834;SDS011;29335;50.526;30.458;2022-11-15T16:31:28;38.03;;;29.48;;
42834;SDS011;29335;50.526;30.458;2022-11-15T16:33:54;41.33;;;28.90;;
42834;SDS011;29335;50.526;30.458;2022-11-15T16:36:21;38.42;;;29.02;;
42834;SDS011;29335;50.526;30.458;2022-11-15T16:38:49;36.50;;;28.38;;
42834;SDS011;29335;50.526;30.458;2022-11-15T16:41:15;33.05;;;27.40;;
42834;SDS011;29335;50.526;30.458;2022-11-15T16:43:43;37.17;;;29.85;;
42834;SDS011;29335;50.526;30.458;2022-11-15T16:46:15;36.58;;;28.60;;
42834;SDS011;29335;50.526;30.458;2022-11-15T16:48:43;35.92;;;28.15;;
42834;SDS011;29335;50.526;30.458;2022-11-15T16:51:09;36.90;;;28.48;;
42834;SDS011;29335;50.526;30.458;2022-11-15T16:53:35;36.78;;;28.25;;
42834;SDS011;29335;50.526;30.458;2022-11-15T16:56:01;34.67;;;28.02;;
42834;SDS011;29335;50.526;30.458;2022-11-15T16:58:26;37.58;;;27.50;;
42834;SDS011;29335;50.526;30.458;2022-11-15T17:00:53;33.17;;;27.63;;
42834;SDS011;29335;50.526;30.458;2022-11-15T17:03:20;32.83;;;27.05;;
42834;SDS011;29335;50.526;30.458;2022-11-15T17:05:47;36.00;;;27.88;;
42834;SDS011;29335;50.526;30.458;2022-11-15T17:08:16;36.90;;;27.60;;
42834;SDS011;29335;50.526;30.458;2022-11-15T17:10:44;34.63;;;26.85;;
42834;SDS011;29335;50.526;30.458;2022-11-15T17:13:13;41.33;;;27.13;;
42834;SDS011;29335;50.526;30.458;2022-11-15T17:15:39;37.47;;;27.40;;
42834;SDS011;29335;50.526;30.458;2022-11-15T17:18:05;33.88;;;26.23;;
42834;SDS011;29335;50.526;30.458;2022-11-15T17:20:30;34.25;;;26.70;;
42834;SDS011;29335;50.526;30.458;2022-11-15T17:22:56;37.63;;;27.13;;
42834;SDS011;29335;50.526;30.458;2022-11-15T17:25:22;35.35;;;27.83;;
42834;SDS011;29335;50.526;30.458;2022-11-15T17:27:47;33.33;;;25.50;;
42834;SDS011;29335;50.526;30.458;2022-11-15T17:30:13;33.95;;;26.15;;
42834;SDS011;29335;50.526;30.458;2022-11-15T17:32:40;37.05;;;27.02;;
42834;SDS011;29335;50.526;30.458;2022-11-15T17:35:07;37.75;;;25.05;;
42834;SDS011;29335;50.526;30.458;2022-11-15T17:37:34;36.83;;;26.90;;
42834;SDS011;29335;50.526;30.458;2022-11-15T17:40:00;34.00;;;26.40;;
42834;SDS011;29335;50.526;30.458;2022-11-15T17:42:26;32.63;;;26.25;;
42834;SDS011;29335;50.526;30.458;2022-11-15T17:44:51;33.95;;;25.77;;
42834;SDS011;29335;50.526;30.458;2022-11-15T17:47:17;35.58;;;25.63;;
42834;SDS011;29335;50.526;30.458;2022-11-15T17:49:43;36.70;;;27.25;;
42834;SDS011;29335;50.526;30.458;2022-11-15T17:52:08;34.90;;;26.73;;
42834;SDS011;29335;50.526;30.458;2022-11-15T17:54:34;33.92;;;26.45;;
42834;SDS011;29335;50.526;30.458;2022-11-15T17:57:00;34.22;;;26.92;;
42834;SDS011;29335;50.526;30.458;2022-11-15T17:59:25;35.08;;;26.95;;
42834;SDS011;29335;50.526;30.458;2022-11-15T18:01:51;31.42;;;26.55;;
42834;SDS011;29335;50.526;30.458;2022-11-15T18:04:17;33.83;;;25.38;;
42834;SDS011;29335;50.526;30.458;2022-11-15T18:06:44;32.15;;;25.67;;
42834;SDS011;29335;50.526;30.458;2022-11-15T18:09:10;32.05;;;26.17;;
42834;SDS011;29335;50.526;30.458;2022-11-15T18:11:37;34.30;;;25.70;;
42834;SDS011;29335;50.526;30.458;2022-11-15T18:14:11;34.75;;;27.10;;
42834;SDS011;29335;50.526;30.458;2022-11-15T18:16:38;31.58;;;26.17;;
42834;SDS011;29335;50.526;30.458;2022-11-15T18:19:04;32.47;;;26.00;;
42834;SDS011;29335;50.526;30.458;2022-11-15T18:21:35;34.50;;;25.92;;
42834;SDS011;29335;50.526;30.458;2022-11-15T18:24:19;32.55;;;24.17;;
42834;SDS011;29335;50.526;30.458;2022-11-15T18:26:52;30.92;;;24.70;;
42834;SDS011;29335;50.526;30.458;2022-11-15T18:29:18;28.23;;;24.60;;